createdAt,value
2022-12-22T00:02:02.816Z,47.58
2022-12-22T00:04:48.604Z,49.38
2022-12-22T00:07:34.730Z,48.08
2022-12-22T00:10:20.403Z,49.78
2022-12-22T00:13:06.510Z,47.58
2022-12-22T00:15:54.372Z,49.58
2022-12-22T00:18:40.431Z,51.58
2022-12-22T00:21:28.854Z,50.17
2022-12-22T00:24:14.784Z,51.83
2022-12-22T00:27:01.655Z,51.83
2022-12-22T00:29:55.793Z,50.53
2022-12-22T00:32:42.416Z,52.22
2022-12-22T00:35:32.805Z,51.47
2022-12-22T00:38:18.895Z,52.80
2022-12-22T00:41:04.713Z,54.00
2022-12-22T00:43:50.654Z,51.97
2022-12-22T00:46:45.562Z,54.10
2022-12-22T00:49:31.923Z,54.70
2022-12-22T00:52:18.153Z,54.20
2022-12-22T00:55:03.912Z,53.03
2022-12-22T00:57:49.995Z,54.35
2022-12-22T01:00:37.210Z,55.40
2022-12-22T01:03:23.655Z,53.70
2022-12-22T01:06:09.512Z,55.13
2022-12-22T01:08:55.437Z,55.35
2022-12-22T01:11:41.428Z,58.15
2022-12-22T01:14:32.746Z,55.50
2022-12-22T01:17:18.840Z,56.95
2022-12-22T01:20:04.787Z,56.05
2022-12-22T01:22:50.603Z,58.50
2022-12-22T01:25:38.449Z,58.03
2022-12-22T01:28:24.487Z,55.35
2022-12-22T01:31:10.907Z,57.53
2022-12-22T01:33:56.836Z,59.55
2022-12-22T01:36:43.035Z,57.85
2022-12-22T01:39:28.935Z,58.47
2022-12-22T01:42:15.059Z,58.75
2022-12-22T01:45:00.858Z,60.45
2022-12-22T01:47:47.060Z,59.22
2022-12-22T01:50:45.808Z,61.83
2022-12-22T01:53:35.971Z,58.40
2022-12-22T01:56:21.969Z,62.95
2022-12-22T01:59:14.786Z,61.55
2022-12-22T02:02:03.728Z,61.40
2022-12-22T02:04:59.444Z,61.08
2022-12-22T02:07:59.556Z,59.92
2022-12-22T02:10:48.595Z,63.35
2022-12-22T02:13:59.652Z,62.03
2022-12-22T02:16:49.261Z,62.17
2022-12-22T02:20:01.696Z,62.22
2022-12-22T02:23:26.512Z,63.83
2022-12-22T02:26:17.745Z,62.63
2022-12-22T02:29:03.895Z,62.38
2022-12-22T02:32:07.646Z,65.32
2022-12-22T02:34:53.501Z,62.92
2022-12-22T02:38:04.672Z,63.97
2022-12-22T02:41:28.272Z,64.72
2022-12-22T02:44:52.081Z,63.78
2022-12-22T02:48:09.232Z,62.40
2022-12-22T02:51:24.764Z,60.10
2022-12-22T02:54:14.772Z,59.38
2022-12-22T02:57:01.082Z,61.30
2022-12-22T02:59:47.221Z,65.55
2022-12-22T03:02:33.936Z,59.72
2022-12-22T03:05:20.036Z,57.58
2022-12-22T03:08:08.423Z,56.80
2022-12-22T03:10:55.176Z,58.25
2022-12-22T03:13:40.937Z,58.25
2022-12-22T03:16:26.743Z,58.30
2022-12-22T03:19:12.892Z,60.17
2022-12-22T03:21:58.900Z,56.85
2022-12-22T03:24:44.903Z,54.05
2022-12-22T03:27:12.300Z,65.22
2022-12-22T03:29:39.633Z,61.05
2022-12-22T03:32:07.261Z,62.25
2022-12-22T03:34:34.556Z,63.72
2022-12-22T03:37:02.201Z,63.85
2022-12-22T03:39:29.570Z,65.18
2022-12-22T03:42:15.270Z,59.55
2022-12-22T03:45:01.413Z,69.63
2022-12-22T03:47:28.780Z,60.58
2022-12-22T03:49:56.032Z,64.15
2022-12-22T03:52:23.377Z,61.80
2022-12-22T03:54:51.355Z,64.05
2022-12-22T03:57:18.623Z,61.40
2022-12-22T03:59:45.932Z,71.70
2022-12-22T04:02:13.273Z,62.05
2022-12-22T04:04:40.689Z,65.10
2022-12-22T04:07:08.002Z,61.25
2022-12-22T04:09:35.419Z,68.47
2022-12-22T04:12:21.224Z,66.75
2022-12-22T04:14:48.458Z,74.63
2022-12-22T04:17:15.787Z,77.35
2022-12-22T04:19:43.193Z,75.35
2022-12-22T04:22:10.516Z,81.93
2022-12-22T04:24:37.787Z,72.60
2022-12-22T04:27:05.124Z,66.85
2022-12-22T04:29:32.424Z,64.53
2022-12-22T04:32:00.035Z,70.15
2022-12-22T04:34:27.497Z,60.35
2022-12-22T04:36:54.906Z,62.05
2022-12-22T04:39:22.230Z,65.30
2022-12-22T04:41:49.495Z,60.10
2022-12-22T04:44:16.815Z,57.13
2022-12-22T04:46:44.183Z,55.90
2022-12-22T04:49:11.462Z,56.20
2022-12-22T04:51:38.784Z,55.60
2022-12-22T04:54:06.082Z,56.70
2022-12-22T04:56:33.401Z,54.38
2022-12-22T04:59:00.660Z,56.58
2022-12-22T05:01:29.522Z,56.42
2022-12-22T05:03:56.952Z,59.70
2022-12-22T05:06:24.236Z,59.08
2022-12-22T05:08:51.517Z,57.55
2022-12-22T05:11:19.340Z,56.80
2022-12-22T05:13:46.664Z,54.97
2022-12-22T05:16:15.766Z,58.78
2022-12-22T05:18:44.616Z,57.65
2022-12-22T05:21:17.440Z,56.17
2022-12-22T05:23:44.997Z,56.47
2022-12-22T05:26:14.626Z,57.08
2022-12-22T05:28:42.838Z,50.95
2022-12-22T05:31:19.677Z,54.95
2022-12-22T05:33:47.440Z,53.65
2022-12-22T05:36:14.847Z,54.30
2022-12-22T05:38:44.473Z,52.42
2022-12-22T05:41:11.790Z,52.78
2022-12-22T05:43:39.235Z,52.83
2022-12-22T05:46:08.974Z,49.40
2022-12-22T05:48:38.995Z,50.50
2022-12-22T05:51:08.522Z,48.95
2022-12-22T05:53:38.308Z,49.30
2022-12-22T05:56:06.199Z,48.65
2022-12-22T05:58:40.033Z,47.42
2022-12-22T06:01:07.591Z,45.85
2022-12-22T06:03:37.514Z,44.58
2022-12-22T06:06:10.231Z,45.17
2022-12-22T06:08:39.651Z,44.55
2022-12-22T06:11:12.156Z,42.95
2022-12-22T06:13:40.349Z,42.83
2022-12-22T06:16:10.597Z,42.45
2022-12-22T06:18:38.418Z,39.58
2022-12-22T06:21:05.835Z,37.42
2022-12-22T06:23:33.218Z,33.47
2022-12-22T06:26:02.022Z,35.95
2022-12-22T06:28:29.846Z,38.88
2022-12-22T06:30:57.171Z,39.97
2022-12-22T06:33:24.548Z,40.08
2022-12-22T06:35:57.987Z,44.30
2022-12-22T06:38:26.500Z,44.88
2022-12-22T06:40:53.896Z,45.35
2022-12-22T06:43:24.394Z,44.97
2022-12-22T06:45:51.829Z,43.65
2022-12-22T06:48:22.352Z,44.92
2022-12-22T06:50:49.757Z,45.20
2022-12-22T06:53:17.167Z,43.08
2022-12-22T06:55:45.257Z,42.72
2022-12-22T06:58:13.676Z,42.20
2022-12-22T07:00:41.002Z,37.92
2022-12-22T07:03:08.635Z,37.25
2022-12-22T07:05:36.041Z,35.60
2022-12-22T07:08:08.561Z,33.92
2022-12-22T07:10:56.336Z,35.03
2022-12-22T07:13:27.715Z,34.50
2022-12-22T07:16:00.470Z,36.80
2022-12-22T07:18:36.533Z,35.97
2022-12-22T07:21:05.968Z,35.55
2022-12-22T07:23:33.481Z,32.70
2022-12-22T07:28:51.289Z,34.00
2022-12-22T07:31:18.999Z,30.95
2022-12-22T07:33:46.574Z,30.15
2022-12-22T07:36:18.988Z,29.95
2022-12-22T07:38:49.122Z,30.02
2022-12-22T07:41:36.710Z,31.90
2022-12-22T07:44:04.885Z,34.00
2022-12-22T07:46:38.474Z,34.80
2022-12-22T07:49:25.159Z,35.78
2022-12-22T07:51:55.584Z,34.28
2022-12-22T07:54:22.907Z,32.45
2022-12-22T07:56:50.280Z,31.65
2022-12-22T07:59:17.846Z,31.38
2022-12-22T08:01:45.871Z,29.30
2022-12-22T08:04:14.339Z,30.77
2022-12-22T08:06:41.787Z,28.55
2022-12-22T08:09:10.013Z,27.58
2022-12-22T08:11:37.304Z,26.65
2022-12-22T08:14:04.525Z,25.50
2022-12-22T08:16:31.923Z,24.27
2022-12-22T08:18:59.294Z,22.77
2022-12-22T08:21:26.634Z,21.25
2022-12-22T08:23:53.900Z,20.88
2022-12-22T08:26:38.919Z,20.77
2022-12-22T08:29:14.380Z,20.35
2022-12-22T08:31:42.153Z,21.13
2022-12-22T08:34:13.380Z,22.67
2022-12-22T08:36:44.498Z,22.23
2022-12-22T08:39:12.090Z,22.75
2022-12-22T08:41:51.724Z,22.60
2022-12-22T08:44:25.375Z,23.33
2022-12-22T08:46:54.269Z,22.35
2022-12-22T08:49:21.867Z,20.08
2022-12-22T08:51:49.572Z,20.85
2022-12-22T08:54:17.493Z,21.35
2022-12-22T08:56:45.492Z,19.77
2022-12-22T08:59:14.052Z,20.88
2022-12-22T09:01:44.936Z,18.92
2022-12-22T09:04:20.360Z,19.55
2022-12-22T09:06:47.867Z,19.38
2022-12-22T09:09:16.592Z,19.30
2022-12-22T09:11:47.473Z,18.52
2022-12-22T09:14:14.799Z,18.85
2022-12-22T09:16:42.560Z,19.30
2022-12-22T09:19:10.157Z,18.42
2022-12-22T09:21:38.075Z,19.92
2022-12-22T09:24:07.488Z,18.38
2022-12-22T09:26:36.011Z,18.83
2022-12-22T09:29:03.748Z,18.00
2022-12-22T09:31:31.501Z,18.05
2022-12-22T09:33:59.191Z,18.33
2022-12-22T09:36:28.977Z,19.80
2022-12-22T09:38:56.467Z,18.67
2022-12-22T09:41:44.006Z,17.60
2022-12-22T09:44:31.406Z,19.20
2022-12-22T09:47:04.454Z,19.83
2022-12-22T09:49:32.191Z,19.08
2022-12-22T09:52:02.799Z,19.33
2022-12-22T09:54:31.140Z,19.55
2022-12-22T09:56:59.007Z,19.33
2022-12-22T09:59:28.373Z,18.55
2022-12-22T10:02:23.933Z,19.77
2022-12-22T10:05:00.262Z,17.40
2022-12-22T10:07:36.232Z,17.23
2022-12-22T10:10:28.266Z,16.75
2022-12-22T10:12:57.743Z,16.45
2022-12-22T10:15:25.618Z,15.10
2022-12-22T10:17:56.566Z,14.45
2022-12-22T10:20:29.724Z,13.35
2022-12-22T10:23:02.860Z,13.45
2022-12-22T10:26:26.351Z,11.85
2022-12-22T10:28:37.748Z,11.60
2022-12-22T10:31:23.472Z,11.68
2022-12-22T10:33:54.275Z,11.23
2022-12-22T10:36:32.329Z,11.73
2022-12-22T10:39:10.707Z,11.75
2022-12-22T10:41:41.190Z,11.80
2022-12-22T10:44:29.827Z,12.85
2022-12-22T10:46:59.238Z,11.38
2022-12-22T10:49:46.674Z,10.45
2022-12-22T10:52:22.440Z,11.38
2022-12-22T10:54:53.083Z,12.10
2022-12-22T10:57:20.405Z,13.15
2022-12-22T11:00:10.312Z,13.63
2022-12-22T11:02:39.296Z,15.77
2022-12-22T11:05:12.114Z,17.88
2022-12-22T11:07:42.115Z,21.33
2022-12-22T11:10:26.380Z,22.75
2022-12-22T11:13:47.676Z,23.45
2022-12-22T11:16:16.897Z,25.73
2022-12-22T11:18:53.273Z,27.60
2022-12-22T11:21:31.262Z,28.42
2022-12-22T11:24:24.387Z,28.40
2022-12-22T11:27:03.513Z,28.58
2022-12-22T11:29:52.326Z,29.58
2022-12-22T11:32:48.929Z,29.30
2022-12-22T11:35:59.454Z,29.42
2022-12-22T11:39:02.506Z,36.22
2022-12-22T11:41:39.613Z,34.65
2022-12-22T11:45:00.495Z,36.63
2022-12-22T11:47:41.900Z,32.80
2022-12-22T11:51:00.298Z,34.47
2022-12-22T11:53:46.173Z,34.78
2022-12-22T11:56:23.831Z,34.60
2022-12-22T11:59:19.357Z,37.90
2022-12-22T12:01:50.105Z,37.88
2022-12-22T12:04:20.550Z,37.85
2022-12-22T12:07:06.507Z,39.97
2022-12-22T12:10:12.213Z,40.22
2022-12-22T12:12:45.046Z,42.25
2022-12-22T12:15:38.983Z,43.25
2022-12-22T12:18:34.009Z,43.17
2022-12-22T12:21:21.591Z,43.47
2022-12-22T12:23:49.108Z,41.17
2022-12-22T12:26:29.396Z,39.35
2022-12-22T12:29:17.215Z,36.05
2022-12-22T12:31:54.439Z,35.40
2022-12-22T12:34:22.857Z,37.60
2022-12-22T12:37:26.490Z,37.17
2022-12-22T12:40:23.121Z,36.25
2022-12-22T12:42:50.744Z,37.42
2022-12-22T12:45:41.617Z,38.67
2022-12-22T12:48:21.230Z,37.38
2022-12-22T12:50:49.945Z,39.90
2022-12-22T12:53:27.860Z,38.05
2022-12-22T12:56:00.094Z,38.67
2022-12-22T12:58:39.367Z,37.00
2022-12-22T13:01:10.514Z,39.17
2022-12-22T13:06:51.711Z,37.92
2022-12-22T13:09:50.078Z,37.10
2022-12-22T13:12:48.749Z,37.95
2022-12-22T13:15:39.892Z,38.13
2022-12-22T13:18:30.075Z,38.72
2022-12-22T13:24:26.437Z,39.50
2022-12-22T13:26:56.068Z,39.97
2022-12-22T13:29:27.832Z,37.85
2022-12-22T13:31:58.284Z,40.17
2022-12-22T13:35:28.908Z,39.72
2022-12-22T13:37:48.182Z,39.70
2022-12-22T13:40:22.983Z,37.90
2022-12-22T13:42:51.508Z,38.70
2022-12-22T13:45:27.651Z,38.38
2022-12-22T13:47:55.315Z,38.22
2022-12-22T13:50:38.204Z,39.08
2022-12-22T13:53:08.794Z,38.72
2022-12-22T13:55:37.883Z,38.63
2022-12-22T13:58:19.757Z,40.08
2022-12-22T14:00:47.058Z,40.17
2022-12-22T14:03:41.753Z,40.40
2022-12-22T14:06:28.535Z,39.67
2022-12-22T14:09:14.080Z,41.35
2022-12-22T14:11:50.738Z,41.20
2022-12-22T14:14:47.839Z,43.20
2022-12-22T14:17:36.660Z,41.08
2022-12-22T14:20:21.427Z,42.28
2022-12-22T14:23:07.960Z,43.33
2022-12-22T14:25:41.216Z,41.08
2022-12-22T14:28:39.333Z,42.65
2022-12-22T14:31:07.959Z,41.83
2022-12-22T14:33:37.703Z,42.13
2022-12-22T14:36:14.077Z,43.80
2022-12-22T14:38:44.462Z,43.67
2022-12-22T14:41:38.673Z,40.53
2022-12-22T14:44:12.833Z,41.00
2022-12-22T14:46:41.152Z,41.75
2022-12-22T14:49:15.683Z,41.33
2022-12-22T14:51:43.140Z,42.30
2022-12-22T14:57:39.845Z,42.08
2022-12-22T15:00:24.435Z,45.88
2022-12-22T15:03:22.266Z,45.53
2022-12-22T15:06:16.650Z,47.50
2022-12-22T15:08:44.291Z,44.35
2022-12-22T15:11:26.451Z,46.08
2022-12-22T15:13:54.103Z,44.33
2022-12-22T15:16:22.842Z,45.70
2022-12-22T15:18:52.022Z,45.08
2022-12-22T15:21:23.097Z,44.85
2022-12-22T15:23:53.062Z,42.15
2022-12-22T15:26:20.392Z,43.92
2022-12-22T15:28:47.751Z,41.00
2022-12-22T15:31:16.727Z,37.00
2022-12-22T15:33:44.841Z,39.75
2022-12-22T15:36:13.691Z,37.72
2022-12-22T15:38:43.031Z,38.75
2022-12-22T15:41:10.341Z,37.97
2022-12-22T15:43:57.122Z,39.47
2022-12-22T15:46:25.230Z,38.85
2022-12-22T15:48:52.840Z,37.60
2022-12-22T15:51:29.316Z,39.55
2022-12-22T15:53:57.724Z,37.80
2022-12-22T15:56:26.298Z,39.03
2022-12-22T15:58:54.647Z,37.55
2022-12-22T16:01:22.017Z,36.88
2022-12-22T16:03:49.436Z,35.38
2022-12-22T16:06:18.953Z,35.25
2022-12-22T16:08:51.580Z,35.97
2022-12-22T16:11:19.576Z,37.65
2022-12-22T16:13:48.442Z,37.55
2022-12-22T16:16:16.047Z,36.67
2022-12-22T16:18:49.394Z,35.70
2022-12-22T16:21:20.333Z,38.03
2022-12-22T16:23:49.875Z,39.72
2022-12-22T16:26:22.296Z,37.83
2022-12-22T16:28:49.798Z,39.97
2022-12-22T16:31:22.832Z,37.35
2022-12-22T16:33:54.679Z,38.45
2022-12-22T16:36:22.193Z,38.33
2022-12-22T16:38:50.807Z,37.63
2022-12-22T16:41:25.572Z,35.08
2022-12-22T16:43:58.287Z,35.13
2022-12-22T16:46:29.706Z,32.38
2022-12-22T16:49:00.296Z,32.83
2022-12-22T16:51:33.920Z,34.95
2022-12-22T16:54:04.721Z,35.20
2022-12-22T16:56:36.212Z,36.17
2022-12-22T17:33:50.939Z,40.50
2022-12-22T17:36:37.994Z,42.45
2022-12-22T17:39:06.169Z,48.42
2022-12-22T17:41:42.978Z,49.40
2022-12-22T17:44:32.807Z,50.53
2022-12-22T17:47:01.533Z,50.33
2022-12-22T17:49:32.418Z,51.50
2022-12-22T17:52:01.142Z,49.30
2022-12-22T17:54:29.004Z,47.50
2022-12-22T17:57:02.185Z,48.25
2022-12-22T17:59:30.256Z,48.80
2022-12-22T18:02:05.410Z,46.67
2022-12-22T18:04:33.114Z,37.70
2022-12-22T18:07:02.293Z,37.85
2022-12-22T18:09:46.046Z,35.70
2022-12-22T18:12:43.966Z,35.78
2022-12-22T18:15:56.627Z,29.48
2022-12-22T18:24:26.542Z,24.48
2022-12-22T18:26:54.920Z,24.92
2022-12-22T18:29:22.586Z,25.05
2022-12-22T18:31:54.528Z,26.52
2022-12-22T18:34:22.863Z,27.45
2022-12-22T18:36:56.305Z,28.92
2022-12-22T18:39:28.883Z,28.70
2022-12-22T18:41:57.704Z,31.10
2022-12-22T18:44:30.758Z,30.65
2022-12-22T18:47:01.438Z,31.60
2022-12-22T18:54:59.912Z,30.88
2022-12-22T18:57:32.084Z,30.05
2022-12-22T19:02:39.163Z,31.63
2022-12-22T19:10:33.887Z,30.10
2022-12-22T19:13:02.547Z,27.83
2022-12-22T19:15:32.494Z,28.88
2022-12-22T19:18:05.529Z,25.70
2022-12-22T19:20:48.976Z,26.50
2022-12-22T19:36:37.650Z,27.73
2022-12-22T19:39:07.007Z,27.00
2022-12-22T19:41:54.201Z,27.70
2022-12-22T19:44:50.304Z,27.83
2022-12-22T19:47:30.371Z,27.20
2022-12-22T19:50:01.127Z,26.75
2022-12-22T19:52:51.618Z,28.83
2022-12-22T19:55:19.398Z,31.27
2022-12-22T19:57:52.126Z,31.98
2022-12-22T20:00:49.516Z,32.15
2022-12-22T20:14:20.821Z,26.45
2022-12-22T20:16:48.396Z,24.38
2022-12-22T20:19:16.349Z,23.23
2022-12-22T20:21:44.060Z,22.80
2022-12-22T20:24:22.059Z,20.50
2022-12-22T20:26:54.202Z,21.48
2022-12-22T20:29:22.477Z,19.67
2022-12-22T20:31:50.233Z,19.83
2022-12-22T20:34:17.641Z,20.38
2022-12-22T20:36:44.967Z,18.50
2022-12-22T20:39:18.321Z,17.60
2022-12-22T20:41:52.201Z,16.42
2022-12-22T20:44:20.518Z,17.50
2022-12-22T20:46:48.175Z,17.42
2022-12-22T20:49:16.901Z,18.05
2022-12-22T20:51:44.468Z,19.15
2022-12-22T20:54:15.197Z,20.05
2022-12-22T20:56:44.062Z,17.98
2022-12-22T20:59:29.524Z,19.65
2022-12-22T21:01:57.010Z,18.83
2022-12-22T21:04:24.557Z,19.63
2022-12-22T21:06:57.201Z,19.63
2022-12-22T21:09:25.527Z,20.85
2022-12-22T21:11:52.887Z,20.25
2022-12-22T21:14:20.340Z,21.67
2022-12-22T21:16:48.132Z,22.10
2022-12-22T21:19:18.246Z,22.00
2022-12-22T21:21:45.971Z,21.48
2022-12-22T21:24:13.354Z,22.27
2022-12-22T21:26:47.556Z,23.40
2022-12-22T21:29:18.183Z,22.65
2022-12-22T21:31:45.544Z,22.95
2022-12-22T21:34:12.839Z,24.55
2022-12-22T21:36:41.892Z,24.77
2022-12-22T21:39:39.193Z,26.20
2022-12-22T21:42:07.777Z,25.77
2022-12-22T21:44:35.908Z,26.08
2022-12-22T21:47:03.675Z,27.08
2022-12-22T21:49:33.056Z,25.40
2022-12-22T21:52:00.602Z,27.17
2022-12-22T21:54:27.955Z,28.13
2022-12-22T21:56:55.362Z,28.40
2022-12-22T21:59:23.451Z,27.75
2022-12-22T22:01:53.812Z,27.92
2022-12-22T22:04:22.074Z,29.15
2022-12-22T22:06:49.509Z,28.20
2022-12-22T22:09:17.110Z,27.65
2022-12-22T22:12:03.453Z,27.38
2022-12-22T22:14:32.331Z,29.13
2022-12-22T22:17:00.002Z,28.45
2022-12-22T22:19:27.653Z,27.98
2022-12-22T22:21:55.595Z,28.30
2022-12-22T22:24:25.177Z,28.15
2022-12-22T22:26:54.880Z,27.02
2022-12-22T22:29:24.980Z,27.50
2022-12-22T22:31:52.626Z,27.42
2022-12-22T22:34:20.320Z,26.77
2022-12-22T22:36:47.664Z,26.73
2022-12-22T22:39:15.010Z,27.30
2022-12-22T22:41:43.788Z,26.60
2022-12-22T22:44:11.769Z,25.23
2022-12-22T22:46:39.604Z,24.60
2022-12-22T22:49:07.756Z,25.48
2022-12-22T22:51:37.800Z,25.50
2022-12-22T22:54:05.471Z,24.40
2022-12-22T22:56:32.843Z,24.70
2022-12-22T22:59:00.532Z,21.48
2022-12-22T23:01:27.897Z,20.48
2022-12-22T23:03:55.284Z,21.08
2022-12-22T23:06:22.787Z,18.85
2022-12-22T23:08:50.983Z,17.42
2022-12-22T23:11:18.418Z,17.13
2022-12-22T23:13:46.036Z,16.80
2022-12-22T23:16:14.730Z,15.55
2022-12-22T23:18:42.716Z,11.77
2022-12-22T23:21:12.163Z,10.25
2022-12-22T23:23:40.099Z,11.20
2022-12-22T23:26:07.828Z,12.23
2022-12-22T23:28:37.267Z,12.82
2022-12-22T23:31:05.095Z,12.40
2022-12-22T23:33:33.008Z,11.95
2022-12-22T23:36:01.275Z,12.43
2022-12-22T23:38:28.618Z,10.98
2022-12-22T23:41:03.466Z,10.68
2022-12-22T23:43:30.855Z,11.82
2022-12-22T23:45:58.483Z,12.07
2022-12-22T23:48:25.829Z,13.07
2022-12-22T23:50:53.917Z,13.93
2022-12-22T23:53:21.237Z,14.07
2022-12-22T23:55:49.157Z,15.85
2022-12-22T23:58:17.285Z,16.42
